sensor_id;sensor_type;location;lat;lon;timestamp;temperature;humidity
55634;DHT22;41504;53.162;6.788;2022-09-03T00:02:15;17.80;51.70
55634;DHT22;41504;53.162;6.788;2022-09-03T00:05:12;17.70;51.70
55634;DHT22;41504;53.162;6.788;2022-09-03T00:10:14;17.60;51.80
55634;DHT22;41504;53.162;6.788;2022-09-03T00:12:42;17.60;52.10
55634;DHT22;41504;53.162;6.788;2022-09-03T00:15:16;17.50;52.00
55634;DHT22;41504;53.162;6.788;2022-09-03T00:17:56;17.50;52.00
55634;DHT22;41504;53.162;6.788;2022-09-03T00:20:32;17.60;52.10
55634;DHT22;41504;53.162;6.788;2022-09-03T00:23:07;17.50;52.10
55634;DHT22;41504;53.162;6.788;2022-09-03T00:25:44;17.50;52.10
55634;DHT22;41504;53.162;6.788;2022-09-03T00:28:29;17.50;52.20
55634;DHT22;41504;53.162;6.788;2022-09-03T00:33:39;17.40;52.30
55634;DHT22;41504;53.162;6.788;2022-09-03T00:36:19;17.50;52.40
55634;DHT22;41504;53.162;6.788;2022-09-03T00:38:45;17.40;52.50
55634;DHT22;41504;53.162;6.788;2022-09-03T00:41:26;17.40;52.50
55634;DHT22;41504;53.162;6.788;2022-09-03T00:55:26;17.20;53.00
55634;DHT22;41504;53.162;6.788;2022-09-03T01:00:38;17.20;53.20
55634;DHT22;41504;53.162;6.788;2022-09-03T01:11:39;17.10;53.40
55634;DHT22;41504;53.162;6.788;2022-09-03T01:14:45;17.00;53.40
55634;DHT22;41504;53.162;6.788;2022-09-03T01:25:41;16.90;53.70
55634;DHT22;41504;53.162;6.788;2022-09-03T01:30:55;16.80;53.70
55634;DHT22;41504;53.162;6.788;2022-09-03T01:33:36;16.80;53.80
55634;DHT22;41504;53.162;6.788;2022-09-03T01:36:28;16.80;53.90
55634;DHT22;41504;53.162;6.788;2022-09-03T01:39:01;16.80;53.80
55634;DHT22;41504;53.162;6.788;2022-09-03T01:45:31;16.70;53.90
55634;DHT22;41504;53.162;6.788;2022-09-03T01:56:25;16.70;54.20
55634;DHT22;41504;53.162;6.788;2022-09-03T01:59:03;16.70;54.00
55634;DHT22;41504;53.162;6.788;2022-09-03T02:01:59;16.60;54.60
55634;DHT22;41504;53.162;6.788;2022-09-03T02:04:25;16.60;54.10
55634;DHT22;41504;53.162;6.788;2022-09-03T02:06:52;16.60;54.10
55634;DHT22;41504;53.162;6.788;2022-09-03T02:09:19;16.60;54.10
55634;DHT22;41504;53.162;6.788;2022-09-03T02:11:50;16.60;54.10
55634;DHT22;41504;53.162;6.788;2022-09-03T02:14:18;16.60;54.20
55634;DHT22;41504;53.162;6.788;2022-09-03T02:16:44;16.60;54.20
55634;DHT22;41504;53.162;6.788;2022-09-03T02:19:15;16.60;54.20
55634;DHT22;41504;53.162;6.788;2022-09-03T02:21:59;16.60;54.30
55634;DHT22;41504;53.162;6.788;2022-09-03T02:24:27;16.50;54.40
55634;DHT22;41504;53.162;6.788;2022-09-03T02:26:53;16.50;54.50
55634;DHT22;41504;53.162;6.788;2022-09-03T02:29:19;16.50;55.20
55634;DHT22;41504;53.162;6.788;2022-09-03T02:31:46;16.50;54.70
55634;DHT22;41504;53.162;6.788;2022-09-03T02:34:15;16.40;54.60
55634;DHT22;41504;53.162;6.788;2022-09-03T02:36:43;16.40;54.70
55634;DHT22;41504;53.162;6.788;2022-09-03T02:39:11;16.40;54.80
55634;DHT22;41504;53.162;6.788;2022-09-03T02:41:36;16.30;54.90
55634;DHT22;41504;53.162;6.788;2022-09-03T02:44:23;16.40;55.00
55634;DHT22;41504;53.162;6.788;2022-09-03T02:46:57;16.40;55.00
55634;DHT22;41504;53.162;6.788;2022-09-03T02:49:23;16.30;55.10
55634;DHT22;41504;53.162;6.788;2022-09-03T02:51:49;16.30;55.10
55634;DHT22;41504;53.162;6.788;2022-09-03T02:54:15;16.30;55.30
55634;DHT22;41504;53.162;6.788;2022-09-03T02:56:40;16.30;55.40
55634;DHT22;41504;53.162;6.788;2022-09-03T02:59:07;16.20;55.50
55634;DHT22;41504;53.162;6.788;2022-09-03T03:01:34;16.20;55.60
55634;DHT22;41504;53.162;6.788;2022-09-03T03:04:01;16.20;55.70
55634;DHT22;41504;53.162;6.788;2022-09-03T03:06:27;16.10;55.80
55634;DHT22;41504;53.162;6.788;2022-09-03T03:08:52;16.10;55.80
55634;DHT22;41504;53.162;6.788;2022-09-03T03:11:23;16.10;56.00
55634;DHT22;41504;53.162;6.788;2022-09-03T03:13:51;16.00;56.10
55634;DHT22;41504;53.162;6.788;2022-09-03T03:16:17;16.00;56.10
55634;DHT22;41504;53.162;6.788;2022-09-03T03:18:43;16.00;56.20
55634;DHT22;41504;53.162;6.788;2022-09-03T03:21:14;16.00;56.70
55634;DHT22;41504;53.162;6.788;2022-09-03T03:23:40;16.00;56.30
55634;DHT22;41504;53.162;6.788;2022-09-03T03:26:09;16.00;56.40
55634;DHT22;41504;53.162;6.788;2022-09-03T03:28:35;16.00;56.50
55634;DHT22;41504;53.162;6.788;2022-09-03T03:31:13;16.00;56.60
55634;DHT22;41504;53.162;6.788;2022-09-03T03:33:39;16.00;56.50
55634;DHT22;41504;53.162;6.788;2022-09-03T03:36:14;16.00;56.50
55634;DHT22;41504;53.162;6.788;2022-09-03T03:38:41;16.00;56.60
55634;DHT22;41504;53.162;6.788;2022-09-03T03:41:28;16.00;56.60
55634;DHT22;41504;53.162;6.788;2022-09-03T03:43:57;16.00;57.00
55634;DHT22;41504;53.162;6.788;2022-09-03T03:46:24;16.00;56.70
55634;DHT22;41504;53.162;6.788;2022-09-03T03:48:53;16.00;56.80
55634;DHT22;41504;53.162;6.788;2022-09-03T03:51:18;16.00;56.70
55634;DHT22;41504;53.162;6.788;2022-09-03T03:53:45;16.00;56.70
55634;DHT22;41504;53.162;6.788;2022-09-03T03:56:13;15.90;56.80
55634;DHT22;41504;53.162;6.788;2022-09-03T03:58:40;15.90;56.90
55634;DHT22;41504;53.162;6.788;2022-09-03T04:03:58;15.90;57.10
55634;DHT22;41504;53.162;6.788;2022-09-03T04:06:24;15.80;57.20
55634;DHT22;41504;53.162;6.788;2022-09-03T04:08:50;15.80;57.10
55634;DHT22;41504;53.162;6.788;2022-09-03T04:11:22;15.80;57.10
55634;DHT22;41504;53.162;6.788;2022-09-03T04:13:48;15.80;57.30
55634;DHT22;41504;53.162;6.788;2022-09-03T04:16:15;15.80;57.30
55634;DHT22;41504;53.162;6.788;2022-09-03T04:18:43;15.80;57.40
55634;DHT22;41504;53.162;6.788;2022-09-03T04:21:09;15.80;57.50
55634;DHT22;41504;53.162;6.788;2022-09-03T04:23:45;15.80;57.50
55634;DHT22;41504;53.162;6.788;2022-09-03T04:26:14;15.80;57.60
55634;DHT22;41504;53.162;6.788;2022-09-03T04:28:40;15.80;57.70
55634;DHT22;41504;53.162;6.788;2022-09-03T04:31:11;15.80;57.70
55634;DHT22;41504;53.162;6.788;2022-09-03T04:33:38;15.80;57.60
55634;DHT22;41504;53.162;6.788;2022-09-03T04:36:13;15.80;57.80
55634;DHT22;41504;53.162;6.788;2022-09-03T04:38:41;15.80;57.80
55634;DHT22;41504;53.162;6.788;2022-09-03T04:41:13;15.70;57.80
55634;DHT22;41504;53.162;6.788;2022-09-03T04:43:39;15.80;58.50
55634;DHT22;41504;53.162;6.788;2022-09-03T18:55:24;22.90;43.60
55634;DHT22;41504;53.162;6.788;2022-09-03T19:10:25;22.50;45.00
55634;DHT22;41504;53.162;6.788;2022-09-03T19:13:32;22.50;45.40
55634;DHT22;41504;53.162;6.788;2022-09-03T19:17:03;22.40;44.90
55634;DHT22;41504;53.162;6.788;2022-09-03T19:22:57;22.40;45.10
55634;DHT22;41504;53.162;6.788;2022-09-03T19:25:42;22.30;45.80
55634;DHT22;41504;53.162;6.788;2022-09-03T19:28:30;22.30;45.80
55634;DHT22;41504;53.162;6.788;2022-09-03T19:35:05;22.20;45.50
55634;DHT22;41504;53.162;6.788;2022-09-03T19:38:27;22.10;45.40
55634;DHT22;41504;53.162;6.788;2022-09-03T19:41:26;22.10;45.60
55634;DHT22;41504;53.162;6.788;2022-09-03T19:44:39;22.10;45.80
55634;DHT22;41504;53.162;6.788;2022-09-03T19:47:41;22.00;45.50
55634;DHT22;41504;53.162;6.788;2022-09-03T19:50:31;22.00;45.80
55634;DHT22;41504;53.162;6.788;2022-09-03T19:53:18;21.90;45.90
55634;DHT22;41504;53.162;6.788;2022-09-03T19:56:08;21.90;46.00
55634;DHT22;41504;53.162;6.788;2022-09-03T19:58:55;21.80;45.90
55634;DHT22;41504;53.162;6.788;2022-09-03T20:01:44;21.70;45.90
55634;DHT22;41504;53.162;6.788;2022-09-03T20:04:40;21.70;45.80
55634;DHT22;41504;53.162;6.788;2022-09-03T20:07:27;21.60;45.40
55634;DHT22;41504;53.162;6.788;2022-09-03T20:10:12;21.60;45.60
55634;DHT22;41504;53.162;6.788;2022-09-03T20:13:04;21.60;45.60
55634;DHT22;41504;53.162;6.788;2022-09-03T20:18:29;21.50;45.30
55634;DHT22;41504;53.162;6.788;2022-09-03T20:21:19;21.40;45.60
55634;DHT22;41504;53.162;6.788;2022-09-03T20:26:56;21.30;45.60
55634;DHT22;41504;53.162;6.788;2022-09-03T20:29:40;21.30;45.20
55634;DHT22;41504;53.162;6.788;2022-09-03T20:51:24;21.00;45.30
55634;DHT22;41504;53.162;6.788;2022-09-03T20:54:04;21.00;45.40
55634;DHT22;41504;53.162;6.788;2022-09-03T21:07:45;20.80;45.10
55634;DHT22;41504;53.162;6.788;2022-09-03T21:10:25;20.80;45.20
55634;DHT22;41504;53.162;6.788;2022-09-03T21:13:11;20.70;45.40
55634;DHT22;41504;53.162;6.788;2022-09-03T21:16:04;20.70;45.40
55634;DHT22;41504;53.162;6.788;2022-09-03T21:23:49;20.50;45.50
55634;DHT22;41504;53.162;6.788;2022-09-03T21:26:24;20.50;45.60
55634;DHT22;41504;53.162;6.788;2022-09-03T21:29:06;20.40;45.70
55634;DHT22;41504;53.162;6.788;2022-09-03T21:31:53;20.40;45.80
55634;DHT22;41504;53.162;6.788;2022-09-03T21:34:39;20.30;45.60
55634;DHT22;41504;53.162;6.788;2022-09-03T21:37:09;20.30;45.80
55634;DHT22;41504;53.162;6.788;2022-09-03T21:39:49;20.30;45.90
55634;DHT22;41504;53.162;6.788;2022-09-03T21:42:54;20.30;45.90
55634;DHT22;41504;53.162;6.788;2022-09-03T21:45:49;20.20;45.80
55634;DHT22;41504;53.162;6.788;2022-09-03T21:48:21;20.10;45.90
55634;DHT22;41504;53.162;6.788;2022-09-03T21:50:59;20.20;46.20
55634;DHT22;41504;53.162;6.788;2022-09-03T21:53:34;20.10;46.20
55634;DHT22;41504;53.162;6.788;2022-09-03T21:56:26;20.10;46.30
55634;DHT22;41504;53.162;6.788;2022-09-03T22:04:17;19.90;46.50
55634;DHT22;41504;53.162;6.788;2022-09-03T22:09:39;19.80;46.80
55634;DHT22;41504;53.162;6.788;2022-09-03T22:12:08;19.70;46.80
55634;DHT22;41504;53.162;6.788;2022-09-03T22:14:49;19.70;46.80
55634;DHT22;41504;53.162;6.788;2022-09-03T22:17:22;19.70;46.90
55634;DHT22;41504;53.162;6.788;2022-09-03T22:19:49;19.60;47.50
55634;DHT22;41504;53.162;6.788;2022-09-03T22:22:27;19.60;47.10
55634;DHT22;41504;53.162;6.788;2022-09-03T22:25:02;19.60;47.10
55634;DHT22;41504;53.162;6.788;2022-09-03T22:27:49;19.50;47.20
55634;DHT22;41504;53.162;6.788;2022-09-03T22:30:19;19.40;47.30
55634;DHT22;41504;53.162;6.788;2022-09-03T22:46:35;19.30;47.80
55634;DHT22;41504;53.162;6.788;2022-09-03T22:57:34;19.10;47.80
55634;DHT22;41504;53.162;6.788;2022-09-03T23:00:04;19.00;47.90
55634;DHT22;41504;53.162;6.788;2022-09-03T23:02:31;18.90;48.10
55634;DHT22;41504;53.162;6.788;2022-09-03T23:05:07;18.90;48.20
55634;DHT22;41504;53.162;6.788;2022-09-03T23:08:03;18.80;48.40
55634;DHT22;41504;53.162;6.788;2022-09-03T23:13:27;18.80;48.40
55634;DHT22;41504;53.162;6.788;2022-09-03T23:16:19;18.70;48.60
55634;DHT22;41504;53.162;6.788;2022-09-03T23:18:46;18.70;48.60
55634;DHT22;41504;53.162;6.788;2022-09-03T23:21:25;18.60;48.60
55634;DHT22;41504;53.162;6.788;2022-09-03T23:24:09;18.60;48.60
55634;DHT22;41504;53.162;6.788;2022-09-03T23:26:55;18.50;48.80
55634;DHT22;41504;53.162;6.788;2022-09-03T23:29:52;18.50;48.90
55634;DHT22;41504;53.162;6.788;2022-09-03T23:32:19;18.50;49.00
55634;DHT22;41504;53.162;6.788;2022-09-03T23:34:44;18.40;49.10
55634;DHT22;41504;53.162;6.788;2022-09-03T23:37:34;18.40;49.20
55634;DHT22;41504;53.162;6.788;2022-09-03T23:40:30;18.30;49.40
55634;DHT22;41504;53.162;6.788;2022-09-03T23:43:15;18.30;49.40
55634;DHT22;41504;53.162;6.788;2022-09-03T23:52:02;18.20;49.40
55634;DHT22;41504;53.162;6.788;2022-09-03T23:54:47;18.00;50.10
55634;DHT22;41504;53.162;6.788;2022-09-03T23:57:21;18.00;49.80
